sensor_id;sensor_type;location;lat;lon;timestamp;pressure;altitude;pressure_sealevel;temperature;humidity
68634;BME280;55625;47.072;22.192;2024-02-21T00:01:07;100417.56;;;4.67;100.00
68634;BME280;55625;47.072;22.192;2024-02-21T00:03:33;100407.94;;;4.68;100.00
68634;BME280;55625;47.072;22.192;2024-02-21T00:05:59;100413.97;;;4.71;100.00
68634;BME280;55625;47.072;22.192;2024-02-21T00:08:25;100413.16;;;4.74;100.00
68634;BME280;55625;47.072;22.192;2024-02-21T00:10:51;100409.16;;;4.75;100.00
68634;BME280;55625;47.072;22.192;2024-02-21T00:13:17;100409.16;;;4.78;100.00
68634;BME280;55625;47.072;22.192;2024-02-21T00:15:43;100405.94;;;4.80;100.00
68634;BME280;55625;47.072;22.192;2024-02-21T00:18:09;100407.16;;;4.82;100.00
68634;BME280;55625;47.072;22.192;2024-02-21T00:20:36;100409.56;;;4.84;100.00
68634;BME280;55625;47.072;22.192;2024-02-21T00:23:02;100408.38;;;4.85;100.00
68634;BME280;55625;47.072;22.192;2024-02-21T00:25:29;100400.75;;;4.89;100.00
68634;BME280;55625;47.072;22.192;2024-02-21T00:27:55;100409.19;;;4.89;100.00
68634;BME280;55625;47.072;22.192;2024-02-21T00:30:21;100409.97;;;4.86;100.00
68634;BME280;55625;47.072;22.192;2024-02-21T00:32:47;100405.16;;;4.86;100.00
68634;BME280;55625;47.072;22.192;2024-02-21T00:35:14;100396.31;;;4.88;100.00
68634;BME280;55625;47.072;22.192;2024-02-21T00:37:40;100399.56;;;4.90;100.00
68634;BME280;55625;47.072;22.192;2024-02-21T00:40:07;100388.31;;;4.90;100.00
68634;BME280;55625;47.072;22.192;2024-02-21T00:42:33;100395.56;;;4.91;100.00
68634;BME280;55625;47.072;22.192;2024-02-21T00:44:59;100384.31;;;4.91;100.00
68634;BME280;55625;47.072;22.192;2024-02-21T00:47:25;100395.97;;;4.93;100.00
68634;BME280;55625;47.072;22.192;2024-02-21T00:49:51;100381.09;;;4.96;100.00
68634;BME280;55625;47.072;22.192;2024-02-21T00:52:17;100371.44;;;4.97;100.00
68634;BME280;55625;47.072;22.192;2024-02-21T00:54:43;100367.84;;;5.00;100.00
68634;BME280;55625;47.072;22.192;2024-02-21T00:57:09;100367.44;;;4.98;100.00
68634;BME280;55625;47.072;22.192;2024-02-21T00:59:35;100365.03;;;5.00;100.00
68634;BME280;55625;47.072;22.192;2024-02-21T01:02:01;100367.03;;;4.99;100.00
68634;BME280;55625;47.072;22.192;2024-02-21T01:04:27;100369.03;;;5.03;100.00
68634;BME280;55625;47.072;22.192;2024-02-21T01:06:53;100365.03;;;5.04;100.00
68634;BME280;55625;47.072;22.192;2024-02-21T01:09:19;100356.59;;;5.07;100.00
68634;BME280;55625;47.072;22.192;2024-02-21T01:11:45;100357.38;;;5.08;100.00
68634;BME280;55625;47.072;22.192;2024-02-21T01:14:11;100354.56;;;5.08;100.00
68634;BME280;55625;47.072;22.192;2024-02-21T01:16:37;100347.34;;;5.10;100.00
68634;BME280;55625;47.072;22.192;2024-02-21T01:19:03;100346.94;;;5.12;100.00
68634;BME280;55625;47.072;22.192;2024-02-21T01:21:29;100347.75;;;5.12;100.00
68634;BME280;55625;47.072;22.192;2024-02-21T01:23:55;100343.34;;;5.22;100.00
68634;BME280;55625;47.072;22.192;2024-02-21T01:26:20;100334.91;;;5.25;100.00
68634;BME280;55625;47.072;22.192;2024-02-21T01:28:46;100333.28;;;5.28;100.00
68634;BME280;55625;47.072;22.192;2024-02-21T01:31:12;100320.41;;;5.27;100.00
68634;BME280;55625;47.072;22.192;2024-02-21T01:33:38;100326.06;;;5.27;100.00
68634;BME280;55625;47.072;22.192;2024-02-21T01:36:05;100316.81;;;5.23;100.00
68634;BME280;55625;47.072;22.192;2024-02-21T01:38:33;100320.03;;;5.21;100.00
68634;BME280;55625;47.072;22.192;2024-02-21T01:41:00;100315.19;;;5.15;100.00
68634;BME280;55625;47.072;22.192;2024-02-21T01:43:26;100317.59;;;5.13;100.00
68634;BME280;55625;47.072;22.192;2024-02-21T01:45:56;100313.19;;;5.12;100.00
68634;BME280;55625;47.072;22.192;2024-02-21T01:48:23;100321.63;;;5.12;100.00
68634;BME280;55625;47.072;22.192;2024-02-21T01:50:50;100312.38;;;5.11;100.00
68634;BME280;55625;47.072;22.192;2024-02-21T01:53:21;100320.81;;;5.11;100.00
68634;BME280;55625;47.072;22.192;2024-02-21T01:55:48;100322.41;;;5.12;100.00
68634;BME280;55625;47.072;22.192;2024-02-21T01:58:15;100324.03;;;5.13;100.00
68634;BME280;55625;47.072;22.192;2024-02-21T02:00:46;100329.66;;;5.13;100.00
68634;BME280;55625;47.072;22.192;2024-02-21T02:03:13;100310.38;;;5.12;100.00
68634;BME280;55625;47.072;22.192;2024-02-21T02:05:46;100322.03;;;5.10;100.00
68634;BME280;55625;47.072;22.192;2024-02-21T02:08:20;100309.56;;;5.11;100.00
68634;BME280;55625;47.072;22.192;2024-02-21T02:10:48;100311.16;;;5.12;100.00
68634;BME280;55625;47.072;22.192;2024-02-21T02:13:14;100306.34;;;5.13;100.00
68634;BME280;55625;47.072;22.192;2024-02-21T02:15:47;100311.16;;;5.12;100.00
68634;BME280;55625;47.072;22.192;2024-02-21T02:18:15;100312.78;;;5.13;100.00
68634;BME280;55625;47.072;22.192;2024-02-21T02:20:42;100310.34;;;5.15;100.00
68634;BME280;55625;47.072;22.192;2024-02-21T02:23:31;100300.72;;;5.13;100.00
68634;BME280;55625;47.072;22.192;2024-02-21T02:25:58;100297.09;;;5.12;100.00
68634;BME280;55625;47.072;22.192;2024-02-21T02:28:24;100292.69;;;5.11;100.00
68634;BME280;55625;47.072;22.192;2024-02-21T02:30:50;100303.13;;;5.14;100.00
68634;BME280;55625;47.072;22.192;2024-02-21T02:33:16;100296.28;;;5.15;100.00
68634;BME280;55625;47.072;22.192;2024-02-21T02:35:45;100297.50;;;5.18;100.00
68634;BME280;55625;47.072;22.192;2024-02-21T02:38:12;100296.28;;;5.19;100.00
68634;BME280;55625;47.072;22.192;2024-02-21T02:40:39;100299.09;;;5.19;100.00
68634;BME280;55625;47.072;22.192;2024-02-21T02:43:06;100299.53;;;5.21;100.00
68634;BME280;55625;47.072;22.192;2024-02-21T02:45:33;100299.13;;;5.22;100.00
68634;BME280;55625;47.072;22.192;2024-02-21T02:47:59;100308.38;;;5.23;100.00
68634;BME280;55625;47.072;22.192;2024-02-21T02:50:26;100304.75;;;5.22;100.00
68634;BME280;55625;47.072;22.192;2024-02-21T02:52:54;100296.72;;;5.24;100.00
68634;BME280;55625;47.072;22.192;2024-02-21T02:55:20;100305.56;;;5.26;100.00
68634;BME280;55625;47.072;22.192;2024-02-21T02:57:47;100296.69;;;5.28;100.00
68634;BME280;55625;47.072;22.192;2024-02-21T03:00:14;100303.94;;;5.29;100.00
68634;BME280;55625;47.072;22.192;2024-02-21T03:02:43;100293.47;;;5.29;100.00
68634;BME280;55625;47.072;22.192;2024-02-21T03:05:21;100302.34;;;5.28;100.00
68634;BME280;55625;47.072;22.192;2024-02-21T03:07:48;100298.72;;;5.27;100.00
68634;BME280;55625;47.072;22.192;2024-02-21T03:10:17;100299.13;;;5.29;100.00
68634;BME280;55625;47.072;22.192;2024-02-21T03:12:43;100301.13;;;5.29;100.00
68634;BME280;55625;47.072;22.192;2024-02-21T03:15:09;100308.75;;;5.28;100.00
68634;BME280;55625;47.072;22.192;2024-02-21T03:17:35;100299.91;;;5.26;100.00
68634;BME280;55625;47.072;22.192;2024-02-21T03:20:05;100303.53;;;5.27;100.00
68634;BME280;55625;47.072;22.192;2024-02-21T03:22:32;100294.28;;;5.26;100.00
68634;BME280;55625;47.072;22.192;2024-02-21T03:24:58;100299.91;;;5.26;100.00
68634;BME280;55625;47.072;22.192;2024-02-21T03:27:24;100305.16;;;5.24;100.00
68634;BME280;55625;47.072;22.192;2024-02-21T03:29:50;100301.53;;;5.27;100.00
68634;BME280;55625;47.072;22.192;2024-02-21T03:32:16;100301.53;;;5.27;100.00
68634;BME280;55625;47.072;22.192;2024-02-21T03:34:42;100302.34;;;5.28;100.00
68634;BME280;55625;47.072;22.192;2024-02-21T03:37:08;100298.31;;;5.29;100.00
68634;BME280;55625;47.072;22.192;2024-02-21T03:39:33;100301.53;;;5.31;100.00
68634;BME280;55625;47.072;22.192;2024-02-21T03:41:59;100303.13;;;5.32;100.00
68634;BME280;55625;47.072;22.192;2024-02-21T03:44:33;100296.28;;;5.33;100.00
68634;BME280;55625;47.072;22.192;2024-02-21T03:46:59;100299.09;;;5.33;100.00
68634;BME280;55625;47.072;22.192;2024-02-21T03:49:26;100299.91;;;5.34;100.00
68634;BME280;55625;47.072;22.192;2024-02-21T03:51:52;100300.72;;;5.34;100.00
68634;BME280;55625;47.072;22.192;2024-02-21T03:54:19;100300.31;;;5.36;100.00
68634;BME280;55625;47.072;22.192;2024-02-21T03:56:45;100295.06;;;5.38;100.00
68634;BME280;55625;47.072;22.192;2024-02-21T03:59:13;100300.28;;;5.39;100.00
68634;BME280;55625;47.072;22.192;2024-02-21T04:01:39;100289.84;;;5.40;100.00
68634;BME280;55625;47.072;22.192;2024-02-21T04:04:05;100284.97;;;5.51;100.00
68634;BME280;55625;47.072;22.192;2024-02-21T04:06:32;100290.63;;;5.47;100.00
68634;BME280;55625;47.072;22.192;2024-02-21T04:08:58;100291.84;;;5.46;100.00
68634;BME280;55625;47.072;22.192;2024-02-21T04:11:24;100293.47;;;5.40;100.00
68634;BME280;55625;47.072;22.192;2024-02-21T04:13:50;100298.28;;;5.43;100.00
68634;BME280;55625;47.072;22.192;2024-02-21T04:16:17;100303.50;;;5.45;100.00
68634;BME280;55625;47.072;22.192;2024-02-21T04:18:43;100297.06;;;5.44;100.00
68634;BME280;55625;47.072;22.192;2024-02-21T04:21:14;100295.84;;;5.49;100.00
68634;BME280;55625;47.072;22.192;2024-02-21T04:23:41;100293.44;;;5.44;100.00
68634;BME280;55625;47.072;22.192;2024-02-21T04:26:07;100297.88;;;5.41;100.00
68634;BME280;55625;47.072;22.192;2024-02-21T04:28:33;100294.28;;;5.37;100.00
68634;BME280;55625;47.072;22.192;2024-02-21T04:30:59;100291.88;;;5.36;100.00
68634;BME280;55625;47.072;22.192;2024-02-21T04:33:25;100295.88;;;5.35;100.00
68634;BME280;55625;47.072;22.192;2024-02-21T04:35:51;100295.09;;;5.34;100.00
68634;BME280;55625;47.072;22.192;2024-02-21T04:38:20;100293.47;;;5.33;100.00
68634;BME280;55625;47.072;22.192;2024-02-21T04:40:46;100285.44;;;5.32;100.00
68634;BME280;55625;47.072;22.192;2024-02-21T04:43:12;100291.06;;;5.32;100.00
68634;BME280;55625;47.072;22.192;2024-02-21T04:45:38;100287.06;;;5.29;100.00
68634;BME280;55625;47.072;22.192;2024-02-21T04:48:04;100288.66;;;5.26;100.00
68634;BME280;55625;47.072;22.192;2024-02-21T04:50:30;100297.09;;;5.26;100.00
68634;BME280;55625;47.072;22.192;2024-02-21T04:52:56;100297.09;;;5.26;100.00
68634;BME280;55625;47.072;22.192;2024-02-21T04:55:22;100294.28;;;5.26;100.00
68634;BME280;55625;47.072;22.192;2024-02-21T04:57:48;100291.06;;;5.28;100.00
68634;BME280;55625;47.072;22.192;2024-02-21T05:00:14;100307.16;;;5.27;100.00
68634;BME280;55625;47.072;22.192;2024-02-21T05:02:40;100298.72;;;5.27;100.00
68634;BME280;55625;47.072;22.192;2024-02-21T05:05:07;100305.53;;;5.30;100.00
68634;BME280;55625;47.072;22.192;2024-02-21T05:07:32;100299.13;;;5.29;100.00
68634;BME280;55625;47.072;22.192;2024-02-21T05:10:01;100306.34;;;5.30;100.00
68634;BME280;55625;47.072;22.192;2024-02-21T05:12:26;100300.72;;;5.30;100.00
68634;BME280;55625;47.072;22.192;2024-02-21T05:14:52;100309.56;;;5.36;100.00
68634;BME280;55625;47.072;22.192;2024-02-21T05:17:20;100304.72;;;5.33;100.00
68634;BME280;55625;47.072;22.192;2024-02-21T05:19:46;100320.00;;;5.32;100.00
68634;BME280;55625;47.072;22.192;2024-02-21T05:22:12;100322.03;;;5.24;100.00
68634;BME280;55625;47.072;22.192;2024-02-21T05:24:39;100313.16;;;5.19;100.00
68634;BME280;55625;47.072;22.192;2024-02-21T05:27:05;100324.06;;;5.20;100.00
68634;BME280;55625;47.072;22.192;2024-02-21T05:29:33;100322.81;;;5.18;100.00
68634;BME280;55625;47.072;22.192;2024-02-21T05:31:58;100320.81;;;5.11;100.00
68634;BME280;55625;47.072;22.192;2024-02-21T05:34:25;100322.00;;;5.14;100.00
68634;BME280;55625;47.072;22.192;2024-02-21T05:36:51;100320.00;;;5.14;100.00
68634;BME280;55625;47.072;22.192;2024-02-21T05:39:18;100316.00;;;5.12;100.00
68634;BME280;55625;47.072;22.192;2024-02-21T05:41:45;100316.00;;;5.12;100.00
68634;BME280;55625;47.072;22.192;2024-02-21T05:44:12;100309.56;;;5.15;100.00
68634;BME280;55625;47.072;22.192;2024-02-21T05:46:38;100312.78;;;5.13;100.00
68634;BME280;55625;47.072;22.192;2024-02-21T05:49:03;100318.00;;;5.08;100.00
68634;BME280;55625;47.072;22.192;2024-02-21T05:51:33;100317.19;;;5.07;100.00
68634;BME280;55625;47.072;22.192;2024-02-21T05:54:00;100310.75;;;5.10;100.00
68634;BME280;55625;47.072;22.192;2024-02-21T05:56:26;100317.19;;;5.14;100.00
68634;BME280;55625;47.072;22.192;2024-02-21T05:58:51;100318.00;;;5.15;100.00
68634;BME280;55625;47.072;22.192;2024-02-21T06:01:17;100318.81;;;5.15;100.00
68634;BME280;55625;47.072;22.192;2024-02-21T06:03:44;100330.06;;;5.15;100.00
68634;BME280;55625;47.072;22.192;2024-02-21T06:06:09;100321.63;;;5.15;100.00
68634;BME280;55625;47.072;22.192;2024-02-21T06:08:35;100335.28;;;5.17;100.00
68634;BME280;55625;47.072;22.192;2024-02-21T06:11:01;100321.59;;;5.19;100.00
68634;BME280;55625;47.072;22.192;2024-02-21T06:13:27;100336.09;;;5.21;100.00
68634;BME280;55625;47.072;22.192;2024-02-21T06:15:53;100336.91;;;5.21;100.00
68634;BME280;55625;47.072;22.192;2024-02-21T06:18:20;100339.31;;;5.23;100.00
68634;BME280;55625;47.072;22.192;2024-02-21T06:20:47;100348.56;;;5.23;100.00
68634;BME280;55625;47.072;22.192;2024-02-21T06:23:15;100339.31;;;5.23;100.00
68634;BME280;55625;47.072;22.192;2024-02-21T06:25:42;100346.16;;;5.22;100.00
68634;BME280;55625;47.072;22.192;2024-02-21T06:28:08;100340.13;;;5.23;100.00
68634;BME280;55625;47.072;22.192;2024-02-21T06:30:35;100341.72;;;5.24;100.00
68634;BME280;55625;47.072;22.192;2024-02-21T06:33:01;100337.72;;;5.29;100.00
68634;BME280;55625;47.072;22.192;2024-02-21T06:35:29;100335.28;;;5.31;100.00
68634;BME280;55625;47.072;22.192;2024-02-21T06:37:55;100342.13;;;5.34;100.00
68634;BME280;55625;47.072;22.192;2024-02-21T06:40:22;100336.88;;;5.36;100.00
68634;BME280;55625;47.072;22.192;2024-02-21T06:42:49;100335.69;;;5.40;100.00
68634;BME280;55625;47.072;22.192;2024-02-21T06:45:15;100346.94;;;5.44;100.00
68634;BME280;55625;47.072;22.192;2024-02-21T06:47:42;100342.91;;;5.48;100.00
68634;BME280;55625;47.072;22.192;2024-02-21T06:50:09;100343.72;;;5.56;100.00
68634;BME280;55625;47.072;22.192;2024-02-21T06:52:36;100350.53;;;5.62;100.00
68634;BME280;55625;47.072;22.192;2024-02-21T06:55:02;100356.97;;;5.66;100.00
68634;BME280;55625;47.072;22.192;2024-02-21T06:57:31;100362.59;;;5.70;100.00
68634;BME280;55625;47.072;22.192;2024-02-21T06:59:57;100359.38;;;5.71;100.00
68634;BME280;55625;47.072;22.192;2024-02-21T07:02:23;100369.00;;;5.74;100.00
68634;BME280;55625;47.072;22.192;2024-02-21T07:04:49;100359.75;;;5.73;100.00
68634;BME280;55625;47.072;22.192;2024-02-21T07:07:15;100357.34;;;5.75;100.00
68634;BME280;55625;47.072;22.192;2024-02-21T07:09:41;100360.97;;;5.76;100.00
68634;BME280;55625;47.072;22.192;2024-02-21T07:12:07;100360.97;;;5.76;100.00
68634;BME280;55625;47.072;22.192;2024-02-21T07:14:33;100366.59;;;5.76;100.00
68634;BME280;55625;47.072;22.192;2024-02-21T07:16:59;100363.38;;;5.77;100.00
68634;BME280;55625;47.072;22.192;2024-02-21T07:19:25;100371.00;;;5.77;100.00
68634;BME280;55625;47.072;22.192;2024-02-21T07:21:51;100373.81;;;5.80;100.00
68634;BME280;55625;47.072;22.192;2024-02-21T07:24:17;100367.38;;;5.80;100.00
68634;BME280;55625;47.072;22.192;2024-02-21T07:26:44;100366.56;;;5.79;100.00
68634;BME280;55625;47.072;22.192;2024-02-21T07:29:10;100374.63;;;5.77;100.00
68634;BME280;55625;47.072;22.192;2024-02-21T07:31:43;100378.66;;;5.80;100.00
68634;BME280;55625;47.072;22.192;2024-02-21T07:34:10;100372.22;;;5.83;100.00
68634;BME280;55625;47.072;22.192;2024-02-21T07:36:36;100375.84;;;5.83;100.00
68634;BME280;55625;47.072;22.192;2024-02-21T07:39:05;100376.66;;;5.91;100.00
68634;BME280;55625;47.072;22.192;2024-02-21T07:41:32;100373.84;;;5.95;100.00
68634;BME280;55625;47.072;22.192;2024-02-21T07:43:59;100375.44;;;5.96;100.00
68634;BME280;55625;47.072;22.192;2024-02-21T07:46:25;100379.44;;;6.05;100.00
68634;BME280;55625;47.072;22.192;2024-02-21T07:48:51;100372.59;;;6.03;100.00
68634;BME280;55625;47.072;22.192;2024-02-21T07:51:17;100377.81;;;6.04;100.00
68634;BME280;55625;47.072;22.192;2024-02-21T07:53:44;100372.22;;;5.97;100.00
68634;BME280;55625;47.072;22.192;2024-02-21T07:56:15;100379.47;;;5.95;100.00
68634;BME280;55625;47.072;22.192;2024-02-21T07:58:41;100379.47;;;5.98;100.00
68634;BME280;55625;47.072;22.192;2024-02-21T08:01:08;100376.22;;;6.00;100.00
68634;BME280;55625;47.072;22.192;2024-02-21T08:03:34;100378.63;;;6.01;100.00
68634;BME280;55625;47.072;22.192;2024-02-21T08:06:02;100379.84;;;6.00;100.00
68634;BME280;55625;47.072;22.192;2024-02-21T08:08:28;100381.44;;;6.08;100.00
68634;BME280;55625;47.072;22.192;2024-02-21T08:10:53;100367.75;;;6.07;100.00
68634;BME280;55625;47.072;22.192;2024-02-21T08:13:19;100378.59;;;6.12;100.00
68634;BME280;55625;47.072;22.192;2024-02-21T08:15:46;100383.03;;;6.20;100.00
68634;BME280;55625;47.072;22.192;2024-02-21T08:18:12;100380.97;;;6.28;100.00
68634;BME280;55625;47.072;22.192;2024-02-21T08:20:38;100387.38;;;6.35;100.00
68634;BME280;55625;47.072;22.192;2024-02-21T08:23:04;100387.38;;;6.39;100.00
68634;BME280;55625;47.072;22.192;2024-02-21T08:25:30;100381.72;;;6.42;100.00
68634;BME280;55625;47.072;22.192;2024-02-21T08:27:59;100387.34;;;6.49;100.00
68634;BME280;55625;47.072;22.192;2024-02-21T08:30:25;100387.34;;;6.49;100.00
68634;BME280;55625;47.072;22.192;2024-02-21T08:32:51;100386.09;;;6.54;100.00
68634;BME280;55625;47.072;22.192;2024-02-21T08:35:17;100388.91;;;6.58;100.00
68634;BME280;55625;47.072;22.192;2024-02-21T08:37:45;100390.88;;;6.64;100.00
68634;BME280;55625;47.072;22.192;2024-02-21T08:40:14;100392.88;;;6.67;100.00
68634;BME280;55625;47.072;22.192;2024-02-21T08:42:43;100392.03;;;6.77;100.00
68634;BME280;55625;47.072;22.192;2024-02-21T08:45:10;100390.44;;;6.73;100.00
68634;BME280;55625;47.072;22.192;2024-02-21T08:47:38;100393.66;;;6.75;100.00
68634;BME280;55625;47.072;22.192;2024-02-21T08:50:05;100396.06;;;6.73;100.00
68634;BME280;55625;47.072;22.192;2024-02-21T08:52:32;100398.09;;;6.69;100.00
68634;BME280;55625;47.072;22.192;2024-02-21T08:54:58;100394.03;;;6.73;100.00
68634;BME280;55625;47.072;22.192;2024-02-21T08:57:24;100391.19;;;6.84;100.00
68634;BME280;55625;47.072;22.192;2024-02-21T08:59:50;100395.63;;;6.85;100.00
68634;BME280;55625;47.072;22.192;2024-02-21T09:02:16;100403.63;;;6.94;100.00
68634;BME280;55625;47.072;22.192;2024-02-21T09:04:42;100395.09;;;7.04;100.00
68634;BME280;55625;47.072;22.192;2024-02-21T09:07:12;100394.22;;;7.14;100.00
68634;BME280;55625;47.072;22.192;2024-02-21T09:09:38;100400.69;;;7.11;100.00
68634;BME280;55625;47.072;22.192;2024-02-21T09:12:07;100388.56;;;7.14;100.00
68634;BME280;55625;47.072;22.192;2024-02-21T09:14:34;100392.50;;;7.28;100.00
68634;BME280;55625;47.072;22.192;2024-02-21T09:17:00;100391.97;;;7.43;100.00
68634;BME280;55625;47.072;22.192;2024-02-21T09:19:26;100395.44;;;7.65;100.00
68634;BME280;55625;47.072;22.192;2024-02-21T09:21:52;100398.25;;;7.65;100.00
68634;BME280;55625;47.072;22.192;2024-02-21T09:24:18;100401.09;;;7.65;100.00
68634;BME280;55625;47.072;22.192;2024-02-21T09:26:43;100390.56;;;7.69;100.00
68634;BME280;55625;47.072;22.192;2024-02-21T09:29:09;100393.84;;;7.61;100.00
68634;BME280;55625;47.072;22.192;2024-02-21T09:31:36;100388.53;;;7.70;100.00
68634;BME280;55625;47.072;22.192;2024-02-21T09:34:02;100393.66;;;7.82;100.00
68634;BME280;55625;47.072;22.192;2024-02-21T09:36:28;100391.13;;;7.91;100.00
68634;BME280;55625;47.072;22.192;2024-02-21T09:38:54;100394.25;;;8.04;100.00
68634;BME280;55625;47.072;22.192;2024-02-21T09:41:27;100393.34;;;8.10;100.00
68634;BME280;55625;47.072;22.192;2024-02-21T09:43:53;100394.91;;;8.15;100.00
68634;BME280;55625;47.072;22.192;2024-02-21T09:46:27;100387.56;;;8.21;100.00
68634;BME280;55625;47.072;22.192;2024-02-21T09:51:55;100396.69;;;8.02;100.00
68634;BME280;55625;47.072;22.192;2024-02-21T09:54:23;100399.72;;;8.18;100.00
68634;BME280;55625;47.072;22.192;2024-02-21T09:56:49;100403.94;;;8.03;100.00
68634;BME280;55625;47.072;22.192;2024-02-21T09:59:18;100405.25;;;7.91;100.00
68634;BME280;55625;47.072;22.192;2024-02-21T10:01:44;100394.72;;;7.95;100.00
68634;BME280;55625;47.072;22.192;2024-02-21T10:04:12;100399.97;;;7.97;100.00
68634;BME280;55625;47.072;22.192;2024-02-21T10:06:38;100404.38;;;8.01;100.00
68634;BME280;55625;47.072;22.192;2024-02-21T10:09:06;100393.03;;;8.05;100.00
68634;BME280;55625;47.072;22.192;2024-02-21T10:11:33;100396.19;;;8.10;100.00
68634;BME280;55625;47.072;22.192;2024-02-21T10:14:06;100398.25;;;8.06;100.00
68634;BME280;55625;47.072;22.192;2024-02-21T10:16:33;100395.84;;;8.05;100.00
68634;BME280;55625;47.072;22.192;2024-02-21T10:19:00;100385.59;;;8.18;100.00
68634;BME280;55625;47.072;22.192;2024-02-21T10:21:26;100389.78;;;8.06;100.00
68634;BME280;55625;47.072;22.192;2024-02-21T10:23:52;100383.59;;;8.15;100.00
68634;BME280;55625;47.072;22.192;2024-02-21T10:26:19;100386.19;;;8.02;100.00
68634;BME280;55625;47.072;22.192;2024-02-21T10:28:47;100382.09;;;8.07;100.00
68634;BME280;55625;47.072;22.192;2024-02-21T10:31:27;100372.34;;;8.12;100.00
68634;BME280;55625;47.072;22.192;2024-02-21T10:34:02;100377.38;;;8.31;100.00
68634;BME280;55625;47.072;22.192;2024-02-21T10:36:29;100371.38;;;8.25;100.00
68634;BME280;55625;47.072;22.192;2024-02-21T10:38:55;100371.38;;;8.25;100.00
68634;BME280;55625;47.072;22.192;2024-02-21T10:41:22;100370.63;;;8.21;100.00
68634;BME280;55625;47.072;22.192;2024-02-21T10:43:55;100367.78;;;8.21;100.00
68634;BME280;55625;47.072;22.192;2024-02-21T10:46:23;100365.03;;;8.14;100.00
68634;BME280;55625;47.072;22.192;2024-02-21T10:51:31;100361.13;;;8.04;100.00
68634;BME280;55625;47.072;22.192;2024-02-21T10:54:29;100363.81;;;8.15;100.00
68634;BME280;55625;47.072;22.192;2024-02-21T10:56:57;100362.22;;;8.14;100.00
68634;BME280;55625;47.072;22.192;2024-02-21T10:59:24;100360.56;;;8.17;100.00
68634;BME280;55625;47.072;22.192;2024-02-21T11:01:52;100349.31;;;8.13;100.00
68634;BME280;55625;47.072;22.192;2024-02-21T11:04:19;100358.63;;;8.10;100.00
68634;BME280;55625;47.072;22.192;2024-02-21T11:06:45;100349.78;;;8.08;100.00
68634;BME280;55625;47.072;22.192;2024-02-21T11:09:12;100345.47;;;8.30;100.00
68634;BME280;55625;47.072;22.192;2024-02-21T11:11:40;100354.50;;;8.18;100.00
68634;BME280;55625;47.072;22.192;2024-02-21T11:14:18;100350.44;;;8.19;100.00
68634;BME280;55625;47.072;22.192;2024-02-21T11:16:45;100344.41;;;8.17;100.00
68634;BME280;55625;47.072;22.192;2024-02-21T11:19:25;100335.75;;;8.35;100.00
68634;BME280;55625;47.072;22.192;2024-02-21T11:21:53;100332.44;;;8.70;100.00
68634;BME280;55625;47.072;22.192;2024-02-21T11:24:30;100339.31;;;8.69;100.00
68634;BME280;55625;47.072;22.192;2024-02-21T11:27:20;100326.97;;;8.56;100.00
68634;BME280;55625;47.072;22.192;2024-02-21T11:29:55;100328.72;;;8.47;100.00
68634;BME280;55625;47.072;22.192;2024-02-21T11:32:22;100322.31;;;8.43;100.00
68634;BME280;55625;47.072;22.192;2024-02-21T11:35:03;100315.31;;;8.51;100.00
68634;BME280;55625;47.072;22.192;2024-02-21T11:37:35;100320.22;;;8.47;100.00
68634;BME280;55625;47.072;22.192;2024-02-21T11:40:05;100315.28;;;8.54;100.00
68634;BME280;55625;47.072;22.192;2024-02-21T11:42:35;100315.94;;;8.65;100.00
68634;BME280;55625;47.072;22.192;2024-02-21T11:45:01;100313.13;;;8.92;100.00
68634;BME280;55625;47.072;22.192;2024-02-21T11:47:31;100309.38;;;8.99;100.00
68634;BME280;55625;47.072;22.192;2024-02-21T11:49:57;100313.63;;;9.11;96.70
68634;BME280;55625;47.072;22.192;2024-02-21T11:52:24;100310.59;;;8.98;98.80
68634;BME280;55625;47.072;22.192;2024-02-21T11:54:54;100308.31;;;8.89;97.80
68634;BME280;55625;47.072;22.192;2024-02-21T11:57:22;100300.88;;;8.72;98.63
68634;BME280;55625;47.072;22.192;2024-02-21T11:59:48;100297.13;;;8.79;97.01
68634;BME280;55625;47.072;22.192;2024-02-21T12:02:15;100294.78;;;8.74;99.44
68634;BME280;55625;47.072;22.192;2024-02-21T12:04:43;100299.06;;;8.85;99.42
68634;BME280;55625;47.072;22.192;2024-02-21T12:07:10;100291.78;;;8.84;97.38
68634;BME280;55625;47.072;22.192;2024-02-21T12:09:36;100292.50;;;8.92;99.24
68634;BME280;55625;47.072;22.192;2024-02-21T12:12:04;100282.66;;;9.00;96.50
68634;BME280;55625;47.072;22.192;2024-02-21T12:14:35;100290.28;;;9.03;95.78
68634;BME280;55625;47.072;22.192;2024-02-21T12:17:02;100285.59;;;9.16;96.99
68634;BME280;55625;47.072;22.192;2024-02-21T12:19:32;100288.16;;;9.34;95.29
68634;BME280;55625;47.072;22.192;2024-02-21T12:22:02;100277.34;;;9.49;96.04
68634;BME280;55625;47.072;22.192;2024-02-21T12:24:31;100286.28;;;9.47;95.72
68634;BME280;55625;47.072;22.192;2024-02-21T12:26:57;100288.38;;;9.43;94.75
68634;BME280;55625;47.072;22.192;2024-02-21T12:29:24;100292.50;;;9.39;95.80
68634;BME280;55625;47.072;22.192;2024-02-21T12:31:51;100292.88;;;9.41;93.47
68634;BME280;55625;47.072;22.192;2024-02-21T12:34:17;100285.44;;;9.50;92.89
68634;BME280;55625;47.072;22.192;2024-02-21T12:36:46;100301.16;;;9.75;93.04
68634;BME280;55625;47.072;22.192;2024-02-21T12:39:13;100278.84;;;9.77;88.21
68634;BME280;55625;47.072;22.192;2024-02-21T12:41:40;100288.69;;;9.49;89.00
68634;BME280;55625;47.072;22.192;2024-02-21T12:44:08;100282.41;;;9.38;90.96
68634;BME280;55625;47.072;22.192;2024-02-21T12:46:38;100279.88;;;9.43;92.32